sensor_id;sensor_type;location;lat;lon;timestamp;temperature;humidity
45729;DHT22;31439;53.512;10.206;2023-03-01T00:00:13;2.20;99.90
45729;DHT22;31439;53.512;10.206;2023-03-01T00:02:38;2.20;99.90
45729;DHT22;31439;53.512;10.206;2023-03-01T00:05:04;2.30;99.90
45729;DHT22;31439;53.512;10.206;2023-03-01T00:07:36;2.10;99.90
45729;DHT22;31439;53.512;10.206;2023-03-01T00:10:02;2.00;99.90
45729;DHT22;31439;53.512;10.206;2023-03-01T00:12:27;1.90;99.90
45729;DHT22;31439;53.512;10.206;2023-03-01T00:14:53;1.80;99.90
45729;DHT22;31439;53.512;10.206;2023-03-01T00:17:19;1.70;99.90
45729;DHT22;31439;53.512;10.206;2023-03-01T00:19:44;1.60;99.90
45729;DHT22;31439;53.512;10.206;2023-03-01T00:22:10;1.70;99.90
45729;DHT22;31439;53.512;10.206;2023-03-01T00:24:35;1.70;99.90
45729;DHT22;31439;53.512;10.206;2023-03-01T00:27:01;1.60;99.90
45729;DHT22;31439;53.512;10.206;2023-03-01T00:29:27;1.50;99.90
45729;DHT22;31439;53.512;10.206;2023-03-01T00:31:53;1.50;99.90
45729;DHT22;31439;53.512;10.206;2023-03-01T00:34:18;1.50;99.90
45729;DHT22;31439;53.512;10.206;2023-03-01T00:36:44;1.40;99.90
45729;DHT22;31439;53.512;10.206;2023-03-01T00:39:12;1.40;99.90
45729;DHT22;31439;53.512;10.206;2023-03-01T00:41:38;1.40;99.90
45729;DHT22;31439;53.512;10.206;2023-03-01T00:44:05;1.50;99.90
45729;DHT22;31439;53.512;10.206;2023-03-01T00:46:31;1.50;99.90
45729;DHT22;31439;53.512;10.206;2023-03-01T00:48:57;1.40;99.90
45729;DHT22;31439;53.512;10.206;2023-03-01T00:51:25;1.70;99.90
45729;DHT22;31439;53.512;10.206;2023-03-01T00:53:52;1.60;99.90
45729;DHT22;31439;53.512;10.206;2023-03-01T00:56:18;1.70;99.90
45729;DHT22;31439;53.512;10.206;2023-03-01T00:58:44;1.50;99.90
45729;DHT22;31439;53.512;10.206;2023-03-01T01:03:56;1.50;99.90
45729;DHT22;31439;53.512;10.206;2023-03-01T01:06:29;1.40;99.90
45729;DHT22;31439;53.512;10.206;2023-03-01T01:08:55;1.40;99.90
45729;DHT22;31439;53.512;10.206;2023-03-01T01:11:23;1.50;99.90
45729;DHT22;31439;53.512;10.206;2023-03-01T01:13:50;1.50;99.90
45729;DHT22;31439;53.512;10.206;2023-03-01T01:16:16;1.40;99.90
45729;DHT22;31439;53.512;10.206;2023-03-01T01:18:43;1.40;99.90
45729;DHT22;31439;53.512;10.206;2023-03-01T01:21:14;1.30;99.90
45729;DHT22;31439;53.512;10.206;2023-03-01T01:23:40;1.30;99.90
45729;DHT22;31439;53.512;10.206;2023-03-01T01:26:09;1.30;99.90
45729;DHT22;31439;53.512;10.206;2023-03-01T01:28:36;1.30;99.90
45729;DHT22;31439;53.512;10.206;2023-03-01T01:31:02;1.40;99.90
45729;DHT22;31439;53.512;10.206;2023-03-01T01:33:28;1.10;99.90
45729;DHT22;31439;53.512;10.206;2023-03-01T01:35:54;1.10;99.90
45729;DHT22;31439;53.512;10.206;2023-03-01T01:38:20;1.20;99.90
45729;DHT22;31439;53.512;10.206;2023-03-01T01:40:47;1.10;99.90
45729;DHT22;31439;53.512;10.206;2023-03-01T01:46:02;1.00;99.90
45729;DHT22;31439;53.512;10.206;2023-03-01T01:48:37;0.80;99.90
45729;DHT22;31439;53.512;10.206;2023-03-01T01:51:08;1.00;99.90
45729;DHT22;31439;53.512;10.206;2023-03-01T01:53:35;0.90;99.90
45729;DHT22;31439;53.512;10.206;2023-03-01T01:56:02;0.80;99.90
45729;DHT22;31439;53.512;10.206;2023-03-01T01:58:29;0.90;99.90
45729;DHT22;31439;53.512;10.206;2023-03-01T02:00:56;1.00;99.90
45729;DHT22;31439;53.512;10.206;2023-03-01T02:03:27;1.00;99.90
45729;DHT22;31439;53.512;10.206;2023-03-01T02:05:59;0.90;99.90
45729;DHT22;31439;53.512;10.206;2023-03-01T02:08:28;1.00;99.90
45729;DHT22;31439;53.512;10.206;2023-03-01T02:10:56;1.00;99.90
45729;DHT22;31439;53.512;10.206;2023-03-01T02:13:23;1.00;99.90
45729;DHT22;31439;53.512;10.206;2023-03-01T02:15:49;1.00;99.90
45729;DHT22;31439;53.512;10.206;2023-03-01T02:18:17;1.00;99.90
45729;DHT22;31439;53.512;10.206;2023-03-01T02:23:10;1.00;99.90
45729;DHT22;31439;53.512;10.206;2023-03-01T02:25:51;0.80;99.90
45729;DHT22;31439;53.512;10.206;2023-03-01T02:30:48;0.90;99.90
45729;DHT22;31439;53.512;10.206;2023-03-01T02:33:35;0.90;99.90
45729;DHT22;31439;53.512;10.206;2023-03-01T02:36:04;0.90;99.90
45729;DHT22;31439;53.512;10.206;2023-03-01T02:38:31;1.00;99.90
45729;DHT22;31439;53.512;10.206;2023-03-01T02:40:57;1.00;99.90
45729;DHT22;31439;53.512;10.206;2023-03-01T02:43:27;1.00;99.90
45729;DHT22;31439;53.512;10.206;2023-03-01T02:45:58;1.00;99.90
45729;DHT22;31439;53.512;10.206;2023-03-01T02:48:23;1.00;99.90
45729;DHT22;31439;53.512;10.206;2023-03-01T02:53:32;1.10;99.90
45729;DHT22;31439;53.512;10.206;2023-03-01T02:56:00;0.90;99.90
45729;DHT22;31439;53.512;10.206;2023-03-01T02:58:26;0.90;99.90
45729;DHT22;31439;53.512;10.206;2023-03-01T03:00:52;0.80;99.90
45729;DHT22;31439;53.512;10.206;2023-03-01T03:03:20;0.90;99.90
45729;DHT22;31439;53.512;10.206;2023-03-01T03:05:46;0.80;99.90
45729;DHT22;31439;53.512;10.206;2023-03-01T03:08:13;1.00;99.90
45729;DHT22;31439;53.512;10.206;2023-03-01T03:10:40;0.90;99.90
45729;DHT22;31439;53.512;10.206;2023-03-01T03:13:11;0.90;99.90
45729;DHT22;31439;53.512;10.206;2023-03-01T03:15:38;1.00;99.90
45729;DHT22;31439;53.512;10.206;2023-03-01T03:18:07;1.10;99.90
45729;DHT22;31439;53.512;10.206;2023-03-01T03:20:33;1.00;99.90
45729;DHT22;31439;53.512;10.206;2023-03-01T03:22:59;1.00;99.90
45729;DHT22;31439;53.512;10.206;2023-03-01T03:25:26;1.00;99.90
45729;DHT22;31439;53.512;10.206;2023-03-01T03:27:52;1.20;99.90
45729;DHT22;31439;53.512;10.206;2023-03-01T03:30:23;1.10;99.90
45729;DHT22;31439;53.512;10.206;2023-03-01T03:32:49;1.20;99.90
45729;DHT22;31439;53.512;10.206;2023-03-01T03:35:29;1.20;99.90
45729;DHT22;31439;53.512;10.206;2023-03-01T03:38:04;1.10;99.90
45729;DHT22;31439;53.512;10.206;2023-03-01T03:40:43;1.10;99.90
45729;DHT22;31439;53.512;10.206;2023-03-01T03:43:20;1.10;99.90
45729;DHT22;31439;53.512;10.206;2023-03-01T03:45:48;1.20;99.90
45729;DHT22;31439;53.512;10.206;2023-03-01T03:48:14;1.30;99.90
45729;DHT22;31439;53.512;10.206;2023-03-01T03:50:40;1.30;99.90
45729;DHT22;31439;53.512;10.206;2023-03-01T03:53:09;1.40;99.90
45729;DHT22;31439;53.512;10.206;2023-03-01T03:55:35;1.40;99.90
45729;DHT22;31439;53.512;10.206;2023-03-01T03:58:02;1.50;99.90
45729;DHT22;31439;53.512;10.206;2023-03-01T04:00:33;1.40;99.90
45729;DHT22;31439;53.512;10.206;2023-03-01T04:02:59;1.50;99.90
45729;DHT22;31439;53.512;10.206;2023-03-01T04:05:27;1.50;99.90
45729;DHT22;31439;53.512;10.206;2023-03-01T04:07:52;1.50;99.90
45729;DHT22;31439;53.512;10.206;2023-03-01T04:10:30;1.40;99.90
45729;DHT22;31439;53.512;10.206;2023-03-01T04:12:56;1.40;99.90
45729;DHT22;31439;53.512;10.206;2023-03-01T04:15:22;1.30;99.90
45729;DHT22;31439;53.512;10.206;2023-03-01T04:17:50;1.40;99.90
45729;DHT22;31439;53.512;10.206;2023-03-01T04:20:20;1.30;99.90
45729;DHT22;31439;53.512;10.206;2023-03-01T04:22:52;1.30;99.90
45729;DHT22;31439;53.512;10.206;2023-03-01T04:25:18;1.50;99.90
45729;DHT22;31439;53.512;10.206;2023-03-01T04:27:43;1.40;99.90
45729;DHT22;31439;53.512;10.206;2023-03-01T04:30:10;1.40;99.90
45729;DHT22;31439;53.512;10.206;2023-03-01T04:32:35;1.50;99.90
45729;DHT22;31439;53.512;10.206;2023-03-01T04:35:01;1.60;99.90
45729;DHT22;31439;53.512;10.206;2023-03-01T04:37:27;1.70;99.90
45729;DHT22;31439;53.512;10.206;2023-03-01T04:39:53;1.70;99.90
45729;DHT22;31439;53.512;10.206;2023-03-01T04:42:19;1.70;99.90
45729;DHT22;31439;53.512;10.206;2023-03-01T04:44:45;1.90;99.90
45729;DHT22;31439;53.512;10.206;2023-03-01T04:47:11;1.80;99.90
45729;DHT22;31439;53.512;10.206;2023-03-01T04:49:37;2.00;99.90
45729;DHT22;31439;53.512;10.206;2023-03-01T04:52:03;1.90;99.90
45729;DHT22;31439;53.512;10.206;2023-03-01T04:54:33;1.90;99.90
45729;DHT22;31439;53.512;10.206;2023-03-01T04:57:00;1.90;99.90
45729;DHT22;31439;53.512;10.206;2023-03-01T04:59:26;1.90;99.90
45729;DHT22;31439;53.512;10.206;2023-03-01T05:01:53;2.00;99.90
45729;DHT22;31439;53.512;10.206;2023-03-01T05:04:21;2.00;99.90
45729;DHT22;31439;53.512;10.206;2023-03-01T05:06:47;2.10;99.90
45729;DHT22;31439;53.512;10.206;2023-03-01T05:09:13;2.10;99.90
45729;DHT22;31439;53.512;10.206;2023-03-01T05:11:38;2.30;99.90
45729;DHT22;31439;53.512;10.206;2023-03-01T05:14:05;2.40;99.90
45729;DHT22;31439;53.512;10.206;2023-03-01T05:16:31;2.30;99.90
45729;DHT22;31439;53.512;10.206;2023-03-01T05:18:58;2.40;99.90
45729;DHT22;31439;53.512;10.206;2023-03-01T05:21:23;2.30;99.90
45729;DHT22;31439;53.512;10.206;2023-03-01T05:23:49;2.40;99.90
45729;DHT22;31439;53.512;10.206;2023-03-01T05:26:16;2.30;99.90
45729;DHT22;31439;53.512;10.206;2023-03-01T05:28:43;2.40;99.90
45729;DHT22;31439;53.512;10.206;2023-03-01T05:31:08;2.40;99.90
45729;DHT22;31439;53.512;10.206;2023-03-01T05:33:39;2.30;99.90
45729;DHT22;31439;53.512;10.206;2023-03-01T05:36:10;2.40;99.90
45729;DHT22;31439;53.512;10.206;2023-03-01T05:38:36;2.30;99.90
45729;DHT22;31439;53.512;10.206;2023-03-01T05:41:02;2.40;99.90
45729;DHT22;31439;53.512;10.206;2023-03-01T05:43:31;2.40;99.90
45729;DHT22;31439;53.512;10.206;2023-03-01T05:45:59;2.30;99.90
45729;DHT22;31439;53.512;10.206;2023-03-01T05:48:25;2.50;99.90
45729;DHT22;31439;53.512;10.206;2023-03-01T05:50:51;2.40;99.90
45729;DHT22;31439;53.512;10.206;2023-03-01T05:53:18;2.40;99.90
45729;DHT22;31439;53.512;10.206;2023-03-01T05:55:47;2.40;99.90
45729;DHT22;31439;53.512;10.206;2023-03-01T05:58:21;2.30;99.90
45729;DHT22;31439;53.512;10.206;2023-03-01T06:00:48;2.40;99.90
45729;DHT22;31439;53.512;10.206;2023-03-01T06:03:15;2.50;99.90
45729;DHT22;31439;53.512;10.206;2023-03-01T06:05:42;2.50;99.90
45729;DHT22;31439;53.512;10.206;2023-03-01T06:08:10;2.50;99.90
45729;DHT22;31439;53.512;10.206;2023-03-01T06:10:36;2.50;99.90
45729;DHT22;31439;53.512;10.206;2023-03-01T06:13:01;2.40;99.90
45729;DHT22;31439;53.512;10.206;2023-03-01T06:15:27;2.50;99.90
45729;DHT22;31439;53.512;10.206;2023-03-01T06:17:54;2.50;99.90
45729;DHT22;31439;53.512;10.206;2023-03-01T06:20:25;2.50;99.90
45729;DHT22;31439;53.512;10.206;2023-03-01T06:22:52;2.90;99.90
45729;DHT22;31439;53.512;10.206;2023-03-01T06:25:20;2.70;99.90
45729;DHT22;31439;53.512;10.206;2023-03-01T06:27:47;2.60;99.90
45729;DHT22;31439;53.512;10.206;2023-03-01T06:30:15;2.40;99.90
45729;DHT22;31439;53.512;10.206;2023-03-01T06:32:41;2.50;99.90
45729;DHT22;31439;53.512;10.206;2023-03-01T06:35:11;2.50;99.90
45729;DHT22;31439;53.512;10.206;2023-03-01T06:37:38;2.60;99.90
45729;DHT22;31439;53.512;10.206;2023-03-01T06:40:04;2.50;99.90
45729;DHT22;31439;53.512;10.206;2023-03-01T06:42:37;2.50;99.90
45729;DHT22;31439;53.512;10.206;2023-03-01T06:45:05;2.50;99.90
45729;DHT22;31439;53.512;10.206;2023-03-01T06:47:32;2.50;99.90
45729;DHT22;31439;53.512;10.206;2023-03-01T06:50:02;2.60;99.90
45729;DHT22;31439;53.512;10.206;2023-03-01T06:52:28;2.60;99.90
45729;DHT22;31439;53.512;10.206;2023-03-01T06:54:54;2.60;99.90
45729;DHT22;31439;53.512;10.206;2023-03-01T06:57:19;2.60;99.90
45729;DHT22;31439;53.512;10.206;2023-03-01T06:59:46;2.80;99.90
45729;DHT22;31439;53.512;10.206;2023-03-01T07:02:13;2.70;99.90
45729;DHT22;31439;53.512;10.206;2023-03-01T07:04:49;2.70;99.90
45729;DHT22;31439;53.512;10.206;2023-03-01T07:07:14;2.80;99.90
45729;DHT22;31439;53.512;10.206;2023-03-01T07:09:40;2.80;99.90
45729;DHT22;31439;53.512;10.206;2023-03-01T07:12:06;3.10;99.90
45729;DHT22;31439;53.512;10.206;2023-03-01T07:14:31;2.80;99.90
45729;DHT22;31439;53.512;10.206;2023-03-01T07:16:57;2.90;99.90
45729;DHT22;31439;53.512;10.206;2023-03-01T07:19:23;2.90;99.90
45729;DHT22;31439;53.512;10.206;2023-03-01T07:21:48;2.90;99.90
45729;DHT22;31439;53.512;10.206;2023-03-01T07:24:14;3.00;99.90
45729;DHT22;31439;53.512;10.206;2023-03-01T07:26:40;2.90;99.90
45729;DHT22;31439;53.512;10.206;2023-03-01T07:29:07;3.00;99.90
45729;DHT22;31439;53.512;10.206;2023-03-01T07:31:34;3.10;99.90
45729;DHT22;31439;53.512;10.206;2023-03-01T07:34:00;3.20;99.90
45729;DHT22;31439;53.512;10.206;2023-03-01T07:36:25;3.20;99.90
45729;DHT22;31439;53.512;10.206;2023-03-01T07:38:51;3.30;99.90
45729;DHT22;31439;53.512;10.206;2023-03-01T07:41:17;3.50;99.90
45729;DHT22;31439;53.512;10.206;2023-03-01T07:43:43;3.40;99.90
45729;DHT22;31439;53.512;10.206;2023-03-01T07:46:08;3.40;99.90
45729;DHT22;31439;53.512;10.206;2023-03-01T07:48:35;3.40;99.90
45729;DHT22;31439;53.512;10.206;2023-03-01T07:51:02;3.40;99.90
45729;DHT22;31439;53.512;10.206;2023-03-01T07:53:29;3.40;99.90
45729;DHT22;31439;53.512;10.206;2023-03-01T07:58:27;3.50;99.90
45729;DHT22;31439;53.512;10.206;2023-03-01T08:00:53;3.50;99.90
45729;DHT22;31439;53.512;10.206;2023-03-01T08:03:19;3.50;99.90
45729;DHT22;31439;53.512;10.206;2023-03-01T08:05:44;3.60;99.90
45729;DHT22;31439;53.512;10.206;2023-03-01T08:08:10;3.60;99.90
45729;DHT22;31439;53.512;10.206;2023-03-01T08:10:36;3.70;99.90
45729;DHT22;31439;53.512;10.206;2023-03-01T08:13:02;3.70;99.90
45729;DHT22;31439;53.512;10.206;2023-03-01T08:15:27;3.80;99.90
45729;DHT22;31439;53.512;10.206;2023-03-01T08:17:53;3.80;99.90
45729;DHT22;31439;53.512;10.206;2023-03-01T08:20:18;3.80;99.90
45729;DHT22;31439;53.512;10.206;2023-03-01T08:22:44;3.90;99.90
45729;DHT22;31439;53.512;10.206;2023-03-01T08:25:10;3.80;99.90
45729;DHT22;31439;53.512;10.206;2023-03-01T08:27:35;3.80;99.90
45729;DHT22;31439;53.512;10.206;2023-03-01T08:30:01;3.80;99.90
45729;DHT22;31439;53.512;10.206;2023-03-01T08:32:26;3.90;99.90
45729;DHT22;31439;53.512;10.206;2023-03-01T08:34:52;3.90;99.90
45729;DHT22;31439;53.512;10.206;2023-03-01T08:37:17;3.90;99.90
45729;DHT22;31439;53.512;10.206;2023-03-01T08:39:43;4.10;99.90
45729;DHT22;31439;53.512;10.206;2023-03-01T08:42:09;4.10;99.90
45729;DHT22;31439;53.512;10.206;2023-03-01T08:44:34;4.30;99.90
45729;DHT22;31439;53.512;10.206;2023-03-01T08:47:00;4.20;99.90
45729;DHT22;31439;53.512;10.206;2023-03-01T08:49:27;4.40;99.90
45729;DHT22;31439;53.512;10.206;2023-03-01T08:51:53;4.40;99.90
45729;DHT22;31439;53.512;10.206;2023-03-01T08:54:21;4.40;99.90
45729;DHT22;31439;53.512;10.206;2023-03-01T08:56:47;4.50;99.90
45729;DHT22;31439;53.512;10.206;2023-03-01T08:59:15;4.60;99.90
45729;DHT22;31439;53.512;10.206;2023-03-01T09:01:41;4.70;99.90
45729;DHT22;31439;53.512;10.206;2023-03-01T09:04:10;4.60;99.90
45729;DHT22;31439;53.512;10.206;2023-03-01T09:06:36;4.60;99.90
45729;DHT22;31439;53.512;10.206;2023-03-01T09:09:04;4.60;99.90
45729;DHT22;31439;53.512;10.206;2023-03-01T09:11:30;4.70;99.90
45729;DHT22;31439;53.512;10.206;2023-03-01T09:13:55;4.80;99.90
45729;DHT22;31439;53.512;10.206;2023-03-01T09:16:22;4.80;99.90
45729;DHT22;31439;53.512;10.206;2023-03-01T09:18:54;4.80;99.90
45729;DHT22;31439;53.512;10.206;2023-03-01T09:21:22;4.90;99.90
45729;DHT22;31439;53.512;10.206;2023-03-01T09:23:49;5.00;99.90
45729;DHT22;31439;53.512;10.206;2023-03-01T09:26:22;5.00;99.90
45729;DHT22;31439;53.512;10.206;2023-03-01T09:28:54;4.90;99.90
45729;DHT22;31439;53.512;10.206;2023-03-01T09:31:21;4.90;99.90
45729;DHT22;31439;53.512;10.206;2023-03-01T09:33:48;5.00;99.90
45729;DHT22;31439;53.512;10.206;2023-03-01T09:36:17;5.00;99.90
45729;DHT22;31439;53.512;10.206;2023-03-01T09:38:43;5.00;99.90
45729;DHT22;31439;53.512;10.206;2023-03-01T09:41:17;4.90;99.90
45729;DHT22;31439;53.512;10.206;2023-03-01T09:43:50;4.90;99.90
45729;DHT22;31439;53.512;10.206;2023-03-01T09:46:21;5.10;99.90
45729;DHT22;31439;53.512;10.206;2023-03-01T09:49:05;5.40;99.90
45729;DHT22;31439;53.512;10.206;2023-03-01T09:51:35;5.50;99.90
45729;DHT22;31439;53.512;10.206;2023-03-01T09:54:05;5.70;99.90
45729;DHT22;31439;53.512;10.206;2023-03-01T09:57:07;5.80;99.90
45729;DHT22;31439;53.512;10.206;2023-03-01T10:00:07;5.90;99.90
45729;DHT22;31439;53.512;10.206;2023-03-01T10:02:52;6.10;99.90
45729;DHT22;31439;53.512;10.206;2023-03-01T10:05:27;6.20;99.90
45729;DHT22;31439;53.512;10.206;2023-03-01T10:10:38;6.30;99.90
45729;DHT22;31439;53.512;10.206;2023-03-01T10:15:57;6.40;99.90
45729;DHT22;31439;53.512;10.206;2023-03-01T10:18:28;6.50;99.90
45729;DHT22;31439;53.512;10.206;2023-03-01T10:20:59;6.50;99.90
45729;DHT22;31439;53.512;10.206;2023-03-01T10:23:26;6.60;99.90
45729;DHT22;31439;53.512;10.206;2023-03-01T10:28:44;6.80;99.90
45729;DHT22;31439;53.512;10.206;2023-03-01T10:31:20;6.80;99.90
45729;DHT22;31439;53.512;10.206;2023-03-01T10:33:47;6.90;99.90
45729;DHT22;31439;53.512;10.206;2023-03-01T10:36:16;6.90;99.90
45729;DHT22;31439;53.512;10.206;2023-03-01T10:38:55;6.90;99.90
45729;DHT22;31439;53.512;10.206;2023-03-01T10:41:24;6.90;99.90
45729;DHT22;31439;53.512;10.206;2023-03-01T10:43:51;7.00;99.90
45729;DHT22;31439;53.512;10.206;2023-03-01T10:51:40;6.90;99.90
45729;DHT22;31439;53.512;10.206;2023-03-01T10:54:19;7.00;99.90
45729;DHT22;31439;53.512;10.206;2023-03-01T10:57:04;7.00;99.90
45729;DHT22;31439;53.512;10.206;2023-03-01T10:59:33;7.10;99.90
45729;DHT22;31439;53.512;10.206;2023-03-01T11:04:28;7.20;99.90
45729;DHT22;31439;53.512;10.206;2023-03-01T11:07:00;7.20;99.90
45729;DHT22;31439;53.512;10.206;2023-03-01T11:09:31;7.30;99.90
45729;DHT22;31439;53.512;10.206;2023-03-01T11:12:05;7.40;99.90
45729;DHT22;31439;53.512;10.206;2023-03-01T11:14:38;7.50;99.90
45729;DHT22;31439;53.512;10.206;2023-03-01T11:19:38;7.70;99.90
45729;DHT22;31439;53.512;10.206;2023-03-01T11:22:14;7.80;99.90
45729;DHT22;31439;53.512;10.206;2023-03-01T11:24:52;7.90;99.90
45729;DHT22;31439;53.512;10.206;2023-03-01T11:27:24;8.00;99.90
45729;DHT22;31439;53.512;10.206;2023-03-01T11:30:03;8.00;99.90
45729;DHT22;31439;53.512;10.206;2023-03-01T11:32:40;8.00;99.90
45729;DHT22;31439;53.512;10.206;2023-03-01T11:35:16;8.20;99.90
45729;DHT22;31439;53.512;10.206;2023-03-01T11:40:35;8.40;99.90
45729;DHT22;31439;53.512;10.206;2023-03-01T11:54:56;8.80;99.90
45729;DHT22;31439;53.512;10.206;2023-03-01T11:57:15;8.80;99.90
45729;DHT22;31439;53.512;10.206;2023-03-01T12:32:36;10.30;99.90
45729;DHT22;31439;53.512;10.206;2023-03-01T12:51:31;10.80;99.90
45729;DHT22;31439;53.512;10.206;2023-03-01T12:53:59;11.10;99.90
45729;DHT22;31439;53.512;10.206;2023-03-01T12:56:30;11.20;99.90
45729;DHT22;31439;53.512;10.206;2023-03-01T12:59:13;11.30;99.90
45729;DHT22;31439;53.512;10.206;2023-03-01T13:20:19;11.60;99.90
45729;DHT22;31439;53.512;10.206;2023-03-01T13:22:46;11.60;99.90
45729;DHT22;31439;53.512;10.206;2023-03-01T13:25:16;11.90;99.90
45729;DHT22;31439;53.512;10.206;2023-03-01T13:27:44;11.90;99.90
45729;DHT22;31439;53.512;10.206;2023-03-01T13:30:39;11.90;99.90
45729;DHT22;31439;53.512;10.206;2023-03-01T13:35:57;11.90;99.90
45729;DHT22;31439;53.512;10.206;2023-03-01T13:38:46;11.90;99.90
45729;DHT22;31439;53.512;10.206;2023-03-01T13:41:17;11.80;99.90
45729;DHT22;31439;53.512;10.206;2023-03-01T13:46:46;12.20;99.90
45729;DHT22;31439;53.512;10.206;2023-03-01T13:49:16;12.00;99.90
45729;DHT22;31439;53.512;10.206;2023-03-01T13:51:42;12.20;99.90
45729;DHT22;31439;53.512;10.206;2023-03-01T13:54:12;12.30;99.90
45729;DHT22;31439;53.512;10.206;2023-03-01T13:56:39;12.40;99.90
45729;DHT22;31439;53.512;10.206;2023-03-01T13:59:17;12.20;99.90
45729;DHT22;31439;53.512;10.206;2023-03-01T14:01:43;12.20;99.90
45729;DHT22;31439;53.512;10.206;2023-03-01T14:04:30;12.30;99.90
45729;DHT22;31439;53.512;10.206;2023-03-01T14:07:20;12.50;99.90
45729;DHT22;31439;53.512;10.206;2023-03-01T14:09:53;12.40;99.90
45729;DHT22;31439;53.512;10.206;2023-03-01T14:15:22;12.70;99.90
45729;DHT22;31439;53.512;10.206;2023-03-01T14:20:33;12.70;99.90
45729;DHT22;31439;53.512;10.206;2023-03-01T14:23:22;12.60;99.90
45729;DHT22;31439;53.512;10.206;2023-03-01T14:25:57;12.50;99.90
45729;DHT22;31439;53.512;10.206;2023-03-01T14:28:29;12.50;99.90
45729;DHT22;31439;53.512;10.206;2023-03-01T14:30:57;12.50;99.90
45729;DHT22;31439;53.512;10.206;2023-03-01T14:33:31;12.60;99.90
45729;DHT22;31439;53.512;10.206;2023-03-01T14:36:05;12.60;99.90
45729;DHT22;31439;53.512;10.206;2023-03-01T14:38:35;12.60;99.90
45729;DHT22;31439;53.512;10.206;2023-03-01T14:41:15;12.80;99.90
45729;DHT22;31439;53.512;10.206;2023-03-01T14:43:44;13.50;99.90
45729;DHT22;31439;53.512;10.206;2023-03-01T14:46:23;13.40;99.90
45729;DHT22;31439;53.512;10.206;2023-03-01T14:48:55;13.10;99.90
45729;DHT22;31439;53.512;10.206;2023-03-01T14:51:23;13.00;99.90
45729;DHT22;31439;53.512;10.206;2023-03-01T14:53:50;12.50;99.90
45729;DHT22;31439;53.512;10.206;2023-03-01T14:56:16;12.30;99.90
45729;DHT22;31439;53.512;10.206;2023-03-01T14:58:46;12.00;99.90
45729;DHT22;31439;53.512;10.206;2023-03-01T15:01:16;12.10;99.90
45729;DHT22;31439;53.512;10.206;2023-03-01T15:03:45;12.30;99.90
45729;DHT22;31439;53.512;10.206;2023-03-01T15:06:15;12.70;99.90
45729;DHT22;31439;53.512;10.206;2023-03-01T15:08:46;12.70;99.90
45729;DHT22;31439;53.512;10.206;2023-03-01T15:11:31;12.40;99.90
45729;DHT22;31439;53.512;10.206;2023-03-01T15:13:57;12.20;99.90
45729;DHT22;31439;53.512;10.206;2023-03-01T15:16:24;12.40;99.90
45729;DHT22;31439;53.512;10.206;2023-03-01T15:19:02;12.60;99.90
45729;DHT22;31439;53.512;10.206;2023-03-01T15:21:33;12.60;99.90
45729;DHT22;31439;53.512;10.206;2023-03-01T15:24:16;12.80;99.90
45729;DHT22;31439;53.512;10.206;2023-03-01T15:26:50;12.70;99.90
45729;DHT22;31439;53.512;10.206;2023-03-01T15:29:21;12.80;99.90
45729;DHT22;31439;53.512;10.206;2023-03-01T15:34:40;12.60;99.90
45729;DHT22;31439;53.512;10.206;2023-03-01T15:37:33;12.30;99.90
45729;DHT22;31439;53.512;10.206;2023-03-01T15:39:54;12.30;99.90
45729;DHT22;31439;53.512;10.206;2023-03-01T15:47:50;12.20;99.90
45729;DHT22;31439;53.512;10.206;2023-03-01T15:50:27;12.10;99.90
45729;DHT22;31439;53.512;10.206;2023-03-01T15:52:54;11.70;99.90
45729;DHT22;31439;53.512;10.206;2023-03-01T15:55:28;11.70;99.90
45729;DHT22;31439;53.512;10.206;2023-03-01T15:58:13;11.50;99.90
45729;DHT22;31439;53.512;10.206;2023-03-01T16:00:40;11.40;99.90
45729;DHT22;31439;53.512;10.206;2023-03-01T16:03:06;11.50;99.90
45729;DHT22;31439;53.512;10.206;2023-03-01T16:05:34;11.20;99.90
45729;DHT22;31439;53.512;10.206;2023-03-01T16:08:02;10.90;99.90
45729;DHT22;31439;53.512;10.206;2023-03-01T16:10:28;10.50;99.90
45729;DHT22;31439;53.512;10.206;2023-03-01T16:12:54;10.20;99.90
45729;DHT22;31439;53.512;10.206;2023-03-01T16:15:30;10.00;99.90
45729;DHT22;31439;53.512;10.206;2023-03-01T16:17:56;9.70;99.90
45729;DHT22;31439;53.512;10.206;2023-03-01T16:20:23;9.40;99.90
45729;DHT22;31439;53.512;10.206;2023-03-01T16:22:49;9.20;99.90
45729;DHT22;31439;53.512;10.206;2023-03-01T16:25:17;9.10;99.90
45729;DHT22;31439;53.512;10.206;2023-03-01T16:27:44;9.10;99.90
45729;DHT22;31439;53.512;10.206;2023-03-01T16:30:11;9.00;99.90
45729;DHT22;31439;53.512;10.206;2023-03-01T16:32:42;8.90;99.90
45729;DHT22;31439;53.512;10.206;2023-03-01T16:35:10;8.70;99.90
45729;DHT22;31439;53.512;10.206;2023-03-01T16:37:37;8.60;99.90
45729;DHT22;31439;53.512;10.206;2023-03-01T16:40:05;8.50;99.90
45729;DHT22;31439;53.512;10.206;2023-03-01T16:42:35;8.40;99.90
45729;DHT22;31439;53.512;10.206;2023-03-01T16:45:00;8.30;99.90
45729;DHT22;31439;53.512;10.206;2023-03-01T16:47:27;8.30;99.90
45729;DHT22;31439;53.512;10.206;2023-03-01T16:49:53;8.30;99.90
45729;DHT22;31439;53.512;10.206;2023-03-01T16:52:20;8.10;99.90
45729;DHT22;31439;53.512;10.206;2023-03-01T16:54:46;8.00;99.90
45729;DHT22;31439;53.512;10.206;2023-03-01T16:57:11;7.90;99.90
45729;DHT22;31439;53.512;10.206;2023-03-01T16:59:37;7.70;99.90
45729;DHT22;31439;53.512;10.206;2023-03-01T17:02:04;7.60;99.90
45729;DHT22;31439;53.512;10.206;2023-03-01T17:04:31;7.60;99.90
45729;DHT22;31439;53.512;10.206;2023-03-01T17:06:56;7.60;99.90
45729;DHT22;31439;53.512;10.206;2023-03-01T17:09:22;7.40;99.90
45729;DHT22;31439;53.512;10.206;2023-03-01T17:11:48;7.30;99.90
45729;DHT22;31439;53.512;10.206;2023-03-01T17:14:15;7.30;99.90
45729;DHT22;31439;53.512;10.206;2023-03-01T17:16:42;7.30;99.90
45729;DHT22;31439;53.512;10.206;2023-03-01T17:19:09;7.30;99.90
45729;DHT22;31439;53.512;10.206;2023-03-01T17:21:34;7.20;99.90
45729;DHT22;31439;53.512;10.206;2023-03-01T17:24:00;7.10;99.90
45729;DHT22;31439;53.512;10.206;2023-03-01T17:26:27;6.90;99.90
45729;DHT22;31439;53.512;10.206;2023-03-01T17:28:56;6.80;99.90
45729;DHT22;31439;53.512;10.206;2023-03-01T17:31:23;6.60;99.90
45729;DHT22;31439;53.512;10.206;2023-03-01T17:33:49;6.60;99.90
45729;DHT22;31439;53.512;10.206;2023-03-01T17:36:16;6.60;99.90
45729;DHT22;31439;53.512;10.206;2023-03-01T17:38:42;6.50;99.90
45729;DHT22;31439;53.512;10.206;2023-03-01T17:41:08;6.30;99.90
45729;DHT22;31439;53.512;10.206;2023-03-01T17:43:36;6.20;99.90
45729;DHT22;31439;53.512;10.206;2023-03-01T17:46:02;6.20;99.90
45729;DHT22;31439;53.512;10.206;2023-03-01T17:48:28;6.20;99.90
45729;DHT22;31439;53.512;10.206;2023-03-01T17:50:54;6.10;99.90
45729;DHT22;31439;53.512;10.206;2023-03-01T17:53:20;6.10;99.90